createdAt,value
2022-08-09T00:00:00.046Z,17.38
2022-08-09T00:02:33.249Z,16.85
2022-08-09T00:05:03.126Z,15.15
2022-08-09T00:07:46.990Z,13.55
2022-08-09T00:10:18.106Z,15.02
2022-08-09T00:12:51.544Z,15.18
2022-08-09T00:15:20.155Z,15.25
2022-08-09T00:18:07.665Z,15.90
2022-08-09T00:20:41.487Z,15.68
2022-08-09T00:23:58.221Z,16.25
2022-08-09T00:26:01.480Z,15.48
2022-08-09T00:28:32.052Z,15.27
2022-08-09T00:31:46.750Z,16.35
2022-08-09T00:33:51.425Z,17.10
2022-08-09T00:36:18.705Z,18.00
2022-08-09T00:38:45.422Z,18.02
2022-08-09T00:44:13.639Z,16.48
2022-08-09T00:44:15.693Z,16.77
2022-08-09T00:46:57.771Z,14.50
2022-08-09T00:49:32.780Z,15.23
2022-08-09T00:52:02.130Z,13.35
2022-08-09T00:54:36.120Z,14.07
2022-08-09T00:57:10.366Z,10.15
2022-08-09T00:59:41.540Z,10.45
2022-08-09T01:02:19.341Z,9.60
2022-08-09T01:05:14.375Z,9.73
2022-08-09T01:08:00.321Z,9.00
2022-08-09T01:10:37.445Z,9.52
2022-08-09T01:13:11.727Z,8.82
2022-08-09T01:15:52.126Z,9.57
2022-08-09T01:18:30.241Z,8.80
2022-08-09T01:21:13.489Z,8.30
2022-08-09T01:24:02.075Z,7.70
2022-08-09T01:27:10.154Z,7.85
2022-08-09T01:29:55.143Z,9.48
2022-08-09T01:32:31.067Z,9.73
2022-08-09T01:35:18.268Z,8.52
2022-08-09T01:38:07.987Z,8.60
2022-08-09T01:40:42.502Z,9.95
2022-08-09T01:43:10.927Z,10.30
2022-08-09T01:45:46.038Z,11.00
2022-08-09T01:48:15.700Z,9.40
2022-08-09T01:50:48.256Z,9.75
2022-08-09T01:53:20.149Z,10.13
2022-08-09T01:55:49.966Z,9.77
2022-08-09T01:58:17.382Z,9.95
2022-08-09T02:00:46.228Z,9.27
2022-08-09T02:03:19.397Z,9.52
2022-08-09T02:06:03.931Z,11.63
2022-08-09T02:08:57.103Z,13.60
2022-08-09T02:11:24.698Z,13.20
2022-08-09T02:14:14.970Z,11.77
2022-08-09T02:16:53.118Z,12.18
2022-08-09T02:19:38.769Z,11.35
2022-08-09T02:22:16.785Z,11.80
2022-08-09T02:24:51.869Z,11.40
2022-08-09T02:27:27.483Z,11.13
2022-08-09T02:30:10.998Z,11.88
2022-08-09T02:32:43.264Z,11.93
2022-08-09T02:35:23.112Z,11.95
2022-08-09T02:38:06.951Z,11.77
2022-08-09T02:40:36.354Z,12.32
2022-08-09T02:43:04.731Z,11.90
2022-08-09T02:45:41.928Z,11.38
2022-08-09T02:48:19.644Z,11.27
2022-08-09T02:51:02.400Z,10.00
2022-08-09T02:53:37.020Z,9.65
2022-08-09T02:56:06.689Z,9.15
2022-08-09T02:58:36.775Z,10.63
2022-08-09T03:01:08.178Z,12.13
2022-08-09T03:04:13.847Z,11.75
2022-08-09T03:06:27.922Z,12.90
2022-08-09T03:08:57.302Z,13.00
2022-08-09T03:12:05.340Z,12.23
2022-08-09T03:14:13.422Z,13.32
2022-08-09T03:16:44.836Z,13.70
2022-08-09T03:19:14.545Z,13.80
2022-08-09T03:22:03.062Z,12.55
2022-08-09T03:24:31.674Z,13.95
2022-08-09T03:27:17.411Z,13.90
2022-08-09T03:29:57.558Z,14.82
2022-08-09T03:32:30.516Z,12.60
2022-08-09T03:34:58.795Z,13.33
2022-08-09T03:37:56.662Z,11.73
2022-08-09T03:40:13.191Z,13.68
2022-08-09T03:42:43.099Z,11.95
2022-08-09T03:45:10.836Z,11.95
2022-08-09T03:47:40.226Z,11.68
2022-08-09T03:50:27.606Z,11.95
2022-08-09T03:52:57.825Z,11.82
2022-08-09T03:55:26.743Z,11.07
2022-08-09T03:58:06.342Z,11.70
2022-08-09T04:00:42.703Z,10.93
2022-08-09T04:03:11.706Z,13.00
2022-08-09T04:05:46.632Z,12.73
2022-08-09T04:08:13.148Z,11.30
2022-08-09T04:10:39.806Z,12.75
2022-08-09T04:13:12.379Z,12.63
2022-08-09T04:16:19.313Z,12.38
2022-08-09T04:18:32.168Z,12.90
2022-08-09T04:20:58.722Z,11.40
2022-08-09T04:23:25.624Z,13.85
2022-08-09T04:25:53.862Z,12.00
2022-08-09T04:28:33.978Z,13.25
2022-08-09T04:31:09.343Z,11.45
2022-08-09T04:33:47.656Z,10.95
2022-08-09T04:36:30.502Z,8.32
2022-08-09T04:39:00.831Z,9.77
2022-08-09T04:41:32.987Z,8.82
2022-08-09T04:44:05.662Z,8.68
2022-08-09T04:46:38.108Z,10.23
2022-08-09T04:49:40.295Z,8.82
2022-08-09T04:52:09.632Z,9.27
2022-08-09T04:54:36.486Z,8.73
2022-08-09T04:57:03.799Z,7.95
2022-08-09T04:59:31.465Z,6.85
2022-08-09T05:01:58.164Z,7.55
2022-08-09T05:04:31.171Z,8.20
2022-08-09T05:06:58.680Z,7.45
2022-08-09T05:09:25.242Z,7.95
2022-08-09T05:12:09.487Z,6.72
2022-08-09T05:14:37.775Z,7.22
2022-08-09T05:17:15.451Z,6.95
2022-08-09T05:19:57.054Z,7.32
2022-08-09T05:22:33.471Z,6.80
2022-08-09T05:25:05.216Z,6.43
2022-08-09T05:27:31.717Z,6.70
2022-08-09T05:29:59.056Z,6.38
2022-08-09T05:32:26.414Z,7.05
2022-08-09T05:34:56.595Z,6.55
2022-08-09T05:37:23.781Z,6.20
2022-08-09T05:39:52.339Z,5.90
2022-08-09T05:42:21.543Z,6.55
2022-08-09T05:44:52.985Z,6.93
2022-08-09T05:47:21.757Z,6.35
2022-08-09T05:50:30.096Z,5.95
2022-08-09T05:52:38.661Z,5.10
2022-08-09T05:55:07.230Z,5.97
2022-08-09T05:57:53.800Z,5.57
2022-08-09T06:00:22.342Z,6.70
2022-08-09T06:02:49.058Z,5.72
2022-08-09T06:05:20.937Z,5.88
2022-08-09T06:08:08.947Z,7.07
2022-08-09T06:10:38.614Z,6.72
2022-08-09T06:13:12.127Z,6.25
2022-08-09T06:15:44.788Z,6.68
2022-08-09T06:18:13.622Z,6.13
2022-08-09T06:20:42.793Z,7.20
2022-08-09T06:23:12.025Z,5.63
2022-08-09T06:25:42.155Z,6.07
2022-08-09T06:28:09.911Z,6.53
2022-08-09T06:30:36.369Z,6.55
2022-08-09T06:33:39.750Z,5.65
2022-08-09T06:35:57.397Z,6.05
2022-08-09T06:38:32.148Z,6.55
2022-08-09T06:41:04.510Z,5.80
2022-08-09T06:43:34.081Z,5.57
2022-08-09T06:46:06.807Z,5.40
2022-08-09T06:48:36.715Z,5.72
2022-08-09T06:51:10.473Z,5.68
2022-08-09T06:53:38.525Z,5.88
2022-08-09T06:56:09.296Z,5.38
2022-08-09T07:00:51.796Z,5.47
2022-08-09T07:01:24.243Z,4.40
2022-08-09T07:03:56.696Z,4.40
2022-08-09T07:06:28.033Z,4.85
2022-08-09T07:08:56.313Z,5.15
2022-08-09T07:11:25.388Z,4.88
2022-08-09T07:14:05.121Z,4.35
2022-08-09T07:19:23.175Z,4.70
2022-08-09T07:21:57.167Z,4.40
2022-08-09T07:24:32.027Z,6.57
2022-08-09T07:27:01.066Z,4.45
2022-08-09T07:29:30.851Z,4.47
2022-08-09T07:32:05.491Z,4.43
2022-08-09T07:34:32.313Z,4.68
2022-08-09T07:37:02.670Z,3.65
2022-08-09T07:39:40.556Z,4.35
2022-08-09T07:42:08.390Z,4.07
2022-08-09T07:44:51.899Z,4.45
2022-08-09T07:47:49.309Z,3.58
2022-08-09T07:50:09.339Z,5.18
2022-08-09T07:52:37.672Z,4.00
2022-08-09T07:55:08.841Z,4.95
2022-08-09T07:57:36.399Z,4.43
2022-08-09T08:00:04.962Z,5.80
2022-08-09T08:02:36.030Z,5.35
2022-08-09T08:05:17.975Z,4.72
2022-08-09T08:08:43.661Z,4.43
2022-08-09T08:10:34.320Z,3.70
2022-08-09T08:13:01.031Z,5.05
2022-08-09T08:15:30.979Z,5.28
2022-08-09T08:18:04.319Z,4.45
2022-08-09T08:20:32.872Z,4.00
2022-08-09T08:23:06.306Z,4.97
2022-08-09T08:25:44.268Z,3.97
2022-08-09T08:28:14.202Z,5.97
2022-08-09T08:30:41.769Z,4.80
2022-08-09T08:33:12.199Z,5.07
2022-08-09T08:35:58.726Z,5.00
2022-08-09T08:38:27.975Z,4.65
2022-08-09T08:40:57.648Z,5.35
2022-08-09T08:43:26.594Z,4.88
2022-08-09T08:46:10.022Z,4.55
2022-08-09T08:48:51.216Z,4.55
2022-08-09T08:51:21.251Z,4.55
2022-08-09T08:54:04.511Z,5.20
2022-08-09T08:56:34.550Z,4.63
2022-08-09T09:01:57.036Z,5.65
2022-08-09T09:04:37.858Z,5.10
2022-08-09T09:07:15.375Z,5.68
2022-08-09T09:10:01.559Z,4.95
2022-08-09T09:12:31.285Z,4.40
2022-08-09T09:15:02.114Z,4.30
2022-08-09T09:17:30.769Z,4.75
2022-08-09T09:20:15.950Z,4.72
2022-08-09T09:22:52.512Z,4.72
2022-08-09T09:26:01.002Z,5.53
2022-08-09T09:29:02.784Z,4.60
2022-08-09T09:32:01.836Z,4.70
2022-08-09T09:34:14.327Z,5.20
2022-08-09T09:36:46.653Z,5.47
2022-08-09T09:39:20.299Z,4.13
2022-08-09T09:41:49.146Z,6.30
2022-08-09T09:44:28.128Z,5.10
2022-08-09T09:47:05.685Z,5.05
2022-08-09T09:49:56.362Z,5.40
2022-08-09T09:52:36.309Z,4.60
2022-08-09T09:55:27.613Z,4.65
2022-08-09T09:58:16.236Z,5.90
2022-08-09T10:00:53.807Z,5.20
2022-08-09T10:03:56.195Z,5.90
2022-08-09T10:06:24.415Z,5.97
2022-08-09T10:08:55.335Z,5.07
2022-08-09T10:11:59.663Z,4.90
2022-08-09T10:14:27.251Z,5.80
2022-08-09T10:17:00.261Z,5.60
2022-08-09T10:19:38.665Z,5.82
2022-08-09T10:22:06.934Z,5.55
2022-08-09T10:24:36.106Z,4.97
2022-08-09T10:27:03.192Z,5.80
2022-08-09T10:30:29.996Z,5.47
2022-08-09T10:32:42.532Z,5.72
2022-08-09T10:35:10.394Z,5.13
2022-08-09T10:37:40.252Z,6.95
2022-08-09T10:40:12.173Z,5.00
2022-08-09T10:42:55.980Z,6.78
2022-08-09T10:45:24.153Z,5.25
2022-08-09T10:48:31.109Z,5.57
2022-08-09T10:51:29.614Z,5.68
2022-08-09T10:54:06.019Z,5.95
2022-08-09T10:56:40.488Z,5.85
2022-08-09T10:59:31.338Z,4.30
2022-08-09T11:03:17.888Z,5.15
2022-08-09T11:05:25.416Z,4.97
2022-08-09T11:07:59.381Z,5.35
2022-08-09T11:10:41.055Z,4.13
2022-08-09T11:13:49.008Z,4.97
2022-08-09T11:16:37.412Z,5.22
2022-08-09T11:19:09.897Z,5.10
2022-08-09T11:21:55.240Z,5.60
2022-08-09T11:24:25.017Z,6.28
2022-08-09T11:26:52.179Z,5.03
2022-08-09T11:30:06.468Z,5.22
2022-08-09T11:32:47.879Z,5.22
2022-08-09T11:35:35.320Z,4.50
2022-08-09T11:38:22.214Z,5.53
2022-08-09T11:40:55.980Z,5.60
2022-08-09T11:43:25.162Z,5.75
2022-08-09T11:45:59.517Z,5.35
2022-08-09T11:48:30.172Z,5.22
2022-08-09T11:52:49.084Z,5.85
2022-08-09T11:54:01.305Z,5.57
2022-08-09T11:56:41.530Z,5.28
2022-08-09T11:59:11.934Z,5.55
2022-08-09T12:02:17.722Z,5.32
2022-08-09T12:04:28.792Z,5.53
2022-08-09T12:06:59.133Z,5.40
2022-08-09T12:09:33.881Z,6.13
2022-08-09T12:12:12.336Z,6.00
2022-08-09T12:15:03.734Z,6.20
2022-08-09T12:17:34.549Z,5.60
2022-08-09T12:20:28.165Z,5.72
2022-08-09T12:23:01.708Z,5.43
2022-08-09T12:25:38.034Z,5.78
2022-08-09T12:29:13.384Z,6.15
2022-08-09T12:31:10.819Z,6.45
2022-08-09T12:34:00.892Z,5.68
2022-08-09T12:36:32.420Z,5.55
2022-08-09T12:39:02.483Z,6.40
2022-08-09T12:41:39.262Z,7.15
2022-08-09T12:44:12.891Z,6.15
2022-08-09T12:46:49.904Z,5.88
2022-08-09T12:49:18.033Z,6.43
2022-08-09T12:52:02.293Z,4.95
2022-08-09T12:55:03.290Z,5.53
2022-08-09T12:57:43.100Z,6.03
2022-08-09T13:00:25.781Z,5.40
2022-08-09T13:02:58.299Z,6.32
2022-08-09T13:05:27.683Z,4.72
2022-08-09T13:08:21.245Z,5.60
2022-08-09T13:11:22.644Z,5.53
2022-08-09T13:14:41.251Z,5.53
2022-08-09T13:16:57.446Z,5.65
2022-08-09T13:20:06.809Z,5.13
2022-08-09T13:25:04.011Z,6.23
2022-08-09T13:27:55.100Z,6.55
2022-08-09T13:30:48.839Z,4.97
2022-08-09T13:33:35.882Z,5.28
2022-08-09T13:36:24.187Z,5.70
2022-08-09T13:41:19.327Z,5.68
2022-08-09T13:42:01.033Z,5.35
2022-08-09T13:44:29.293Z,6.03
2022-08-09T13:47:25.273Z,5.53
2022-08-09T13:49:57.532Z,5.05
2022-08-09T13:52:25.942Z,5.88
2022-08-09T13:54:59.863Z,5.45
2022-08-09T13:57:36.459Z,6.30
2022-08-09T14:00:08.770Z,5.75
2022-08-09T14:02:36.399Z,5.50
2022-08-09T14:05:09.807Z,5.40
2022-08-09T14:07:41.281Z,5.55
2022-08-09T14:10:17.215Z,5.90
2022-08-09T14:12:55.416Z,6.22
2022-08-09T14:16:09.834Z,5.65
2022-08-09T14:18:19.799Z,5.75
2022-08-09T14:20:57.003Z,6.80
2022-08-09T14:23:40.694Z,6.47
2022-08-09T14:26:10.262Z,5.78
2022-08-09T14:28:37.722Z,5.78
2022-08-09T14:31:04.302Z,5.57
2022-08-09T14:33:30.967Z,5.90
2022-08-09T14:36:19.718Z,5.57
2022-08-09T14:38:53.000Z,6.40
2022-08-09T14:41:34.529Z,5.60
2022-08-09T14:44:06.489Z,5.07
2022-08-09T14:46:57.566Z,5.35
2022-08-09T14:49:23.692Z,5.40
2022-08-09T14:51:50.979Z,5.93
2022-08-09T14:54:27.899Z,5.78
2022-08-09T14:56:57.597Z,5.82
2022-08-09T14:59:24.865Z,6.05
2022-08-09T15:01:53.628Z,5.20
2022-08-09T15:04:20.176Z,5.45
2022-08-09T15:10:03.091Z,5.55
2022-08-09T15:12:07.818Z,5.50
2022-08-09T15:14:38.521Z,4.75
2022-08-09T15:17:07.740Z,5.50
2022-08-09T15:19:36.472Z,6.00
2022-08-09T15:22:03.432Z,5.80
2022-08-09T15:24:30.185Z,6.00
2022-08-09T15:26:57.636Z,5.82
2022-08-09T15:30:58.280Z,6.03
2022-08-09T15:32:29.764Z,5.80
2022-08-09T15:35:00.293Z,4.75
2022-08-09T15:37:37.702Z,7.05
2022-08-09T15:40:25.309Z,5.15
2022-08-09T15:42:59.233Z,6.55
2022-08-09T15:45:29.847Z,5.55
2022-08-09T15:48:05.202Z,5.65
2022-08-09T15:50:33.399Z,5.40
2022-08-09T15:53:06.107Z,5.18
2022-08-09T15:55:34.497Z,5.53
2022-08-09T15:58:26.821Z,5.07
2022-08-09T16:00:54.094Z,5.38
2022-08-09T16:03:29.641Z,6.57
2022-08-09T16:06:06.814Z,5.38
2022-08-09T16:08:44.608Z,5.75
2022-08-09T16:11:16.289Z,5.57
2022-08-09T16:14:03.637Z,4.97
2022-08-09T16:16:31.605Z,5.43
2022-08-09T16:18:58.718Z,5.27
2022-08-09T16:21:26.465Z,5.55
2022-08-09T16:24:02.012Z,5.00
2022-08-09T16:26:35.125Z,5.65
2022-08-09T16:29:11.134Z,5.03
2022-08-09T16:32:19.900Z,4.35
2022-08-09T16:34:27.012Z,4.78
2022-08-09T16:36:55.897Z,5.90
2022-08-09T16:39:25.959Z,5.55
2022-08-09T16:42:04.049Z,5.70
2022-08-09T16:44:32.098Z,5.50
2022-08-09T16:47:03.787Z,5.47
2022-08-09T16:50:28.736Z,5.00
2022-08-09T16:52:17.367Z,4.85
2022-08-09T16:54:45.864Z,4.50
2022-08-09T16:57:12.374Z,4.85
2022-08-09T16:59:43.853Z,5.50
2022-08-09T17:02:17.841Z,4.82
2022-08-09T17:04:50.281Z,5.13
2022-08-09T17:08:44.245Z,5.60
2022-08-09T17:10:07.752Z,5.30
2022-08-09T17:12:35.749Z,5.40
2022-08-09T17:15:02.489Z,4.82
2022-08-09T17:17:50.953Z,5.25
2022-08-09T17:20:32.472Z,5.07
2022-08-09T17:23:04.958Z,4.97
2022-08-09T17:25:37.114Z,4.60
2022-08-09T17:28:06.383Z,4.40
2022-08-09T17:30:34.086Z,4.78
2022-08-09T17:33:05.053Z,5.43
2022-08-09T17:35:34.292Z,4.40
2022-08-09T17:38:12.000Z,4.60
2022-08-09T17:40:47.583Z,5.35
2022-08-09T17:43:34.180Z,4.90
2022-08-09T17:46:06.638Z,5.38
2022-08-09T17:48:38.640Z,5.53
2022-08-09T17:51:09.447Z,5.45
2022-08-09T17:53:48.201Z,4.43
2022-08-09T17:56:20.429Z,5.43
2022-08-09T17:58:47.219Z,4.95
2022-08-09T18:01:15.639Z,5.10
2022-08-09T18:03:49.359Z,5.43
2022-08-09T18:06:31.274Z,5.82
2022-08-09T18:09:04.561Z,5.47
2022-08-09T18:12:04.775Z,4.82
2022-08-09T18:14:21.566Z,4.80
2022-08-09T18:16:49.715Z,5.40
2022-08-09T18:20:54.657Z,5.32
2022-08-09T18:22:04.051Z,6.18
2022-08-09T18:24:31.017Z,5.38
2022-08-09T18:26:57.650Z,5.40
2022-08-09T18:30:41.574Z,6.07
2022-08-09T18:32:14.441Z,4.55
2022-08-09T18:34:45.823Z,5.28
2022-08-09T18:37:47.395Z,4.68
2022-08-09T18:40:01.799Z,5.25
2022-08-09T18:42:29.439Z,5.50
2022-08-09T18:44:56.953Z,4.82
2022-08-09T18:47:27.595Z,5.20
2022-08-09T18:50:03.040Z,5.53
2022-08-09T18:52:34.604Z,6.80
2022-08-09T18:55:02.007Z,5.93
2022-08-09T18:57:43.268Z,4.80
2022-08-09T19:00:16.304Z,4.85
2022-08-09T19:02:46.458Z,5.63
2022-08-09T19:05:20.629Z,5.40
2022-08-09T19:08:04.894Z,4.45
2022-08-09T19:10:39.240Z,5.05
2022-08-09T19:13:20.763Z,5.05
2022-08-09T19:15:52.071Z,5.45
2022-08-09T19:18:33.975Z,4.75
2022-08-09T19:21:03.432Z,6.15
2022-08-09T19:24:33.389Z,5.57
2022-08-09T19:26:18.862Z,6.18
2022-08-09T19:28:55.961Z,5.13
2022-08-09T19:31:27.872Z,4.70
2022-08-09T19:33:57.913Z,4.30
2022-08-09T19:36:30.989Z,4.65
2022-08-09T19:39:03.522Z,5.00
2022-08-09T19:41:33.107Z,4.53
2022-08-09T19:44:03.371Z,4.60
2022-08-09T19:46:35.150Z,3.83
2022-08-09T19:50:09.277Z,4.95
2022-08-09T19:51:55.278Z,5.53
2022-08-09T19:54:27.023Z,5.00
2022-08-09T19:56:55.358Z,4.38
2022-08-09T19:59:58.443Z,4.05
2022-08-09T20:04:12.370Z,5.35
2022-08-09T20:04:58.746Z,5.85
2022-08-09T20:07:26.188Z,3.72
2022-08-09T20:10:17.701Z,5.18
2022-08-09T20:12:49.004Z,4.00
2022-08-09T20:16:38.055Z,4.03
2022-08-09T20:18:02.790Z,4.25
2022-08-09T20:20:29.376Z,4.88
2022-08-09T20:22:56.757Z,4.93
2022-08-09T20:25:23.852Z,4.88
2022-08-09T20:27:51.014Z,4.65
2022-08-09T20:30:18.065Z,5.38
2022-08-09T20:32:52.367Z,4.30
2022-08-09T20:35:20.353Z,5.07
2022-08-09T20:38:21.201Z,5.20
2022-08-09T20:40:33.517Z,5.03
2022-08-09T20:43:19.144Z,5.30
2022-08-09T20:45:59.543Z,4.20
2022-08-09T20:48:36.794Z,4.72
2022-08-09T20:51:04.039Z,4.57
2022-08-09T20:53:37.509Z,4.93
2022-08-09T20:56:07.197Z,4.70
2022-08-09T20:58:35.598Z,5.20
2022-08-09T21:01:32.741Z,5.35
2022-08-09T21:06:41.390Z,5.35
2022-08-09T21:09:11.857Z,4.72
2022-08-09T21:14:30.823Z,4.82
2022-08-09T21:16:59.357Z,6.30
2022-08-09T21:20:17.131Z,5.20
2022-08-09T21:22:35.700Z,5.45
2022-08-09T21:25:17.834Z,5.25
2022-08-09T21:27:52.216Z,5.40
2022-08-09T21:30:19.959Z,6.28
2022-08-09T21:32:49.344Z,5.43
2022-08-09T21:35:16.528Z,6.80
2022-08-09T21:37:58.860Z,6.15
2022-08-09T21:40:30.742Z,5.72
2022-08-09T21:43:00.068Z,5.63
2022-08-09T21:45:27.542Z,5.43
2022-08-09T21:47:54.073Z,5.25
2022-08-09T21:50:26.201Z,6.50
2022-08-09T21:53:06.916Z,5.88
2022-08-09T21:55:46.847Z,6.55
2022-08-09T21:58:13.522Z,7.03
2022-08-09T22:00:40.764Z,7.35
2022-08-09T22:03:12.534Z,7.78
2022-08-09T22:05:46.372Z,7.15
2022-08-09T22:08:18.434Z,6.05
2022-08-09T22:11:04.861Z,6.15
2022-08-09T22:13:35.731Z,4.68
2022-08-09T22:16:07.526Z,4.60
2022-08-09T22:18:35.092Z,5.07
2022-08-09T22:21:09.362Z,5.10
2022-08-09T22:23:59.025Z,4.85
2022-08-09T22:26:34.294Z,4.90
2022-08-09T22:29:06.767Z,5.72
2022-08-09T22:31:35.493Z,5.57
2022-08-09T22:34:02.565Z,6.40
2022-08-09T22:36:29.014Z,4.97
2022-08-09T22:39:04.166Z,4.63
2022-08-09T22:41:30.809Z,5.25
2022-08-09T22:44:01.278Z,7.47
2022-08-09T22:48:11.472Z,8.02
2022-08-09T22:49:17.198Z,9.13
2022-08-09T22:51:56.350Z,9.38
2022-08-09T22:54:27.121Z,9.70
2022-08-09T22:56:56.866Z,9.00
2022-08-09T22:59:57.299Z,9.02
2022-08-09T23:02:11.128Z,7.20
2022-08-09T23:04:42.422Z,8.20
2022-08-09T23:08:21.360Z,8.07
2022-08-09T23:10:13.993Z,8.90
2022-08-09T23:12:40.542Z,8.93
2022-08-09T23:15:07.425Z,9.07
2022-08-09T23:17:34.204Z,9.43
2022-08-09T23:20:07.922Z,10.20
2022-08-09T23:22:35.869Z,9.13
2022-08-09T23:25:04.581Z,10.02
2022-08-09T23:27:31.083Z,9.93
2022-08-09T23:29:57.611Z,11.52
2022-08-09T23:32:24.119Z,12.50
2022-08-09T23:34:50.671Z,12.10
2022-08-09T23:37:21.305Z,13.95
2022-08-09T23:39:49.580Z,14.40
2022-08-09T23:42:16.144Z,16.08
2022-08-09T23:44:42.704Z,15.98
2022-08-09T23:47:09.271Z,14.20
2022-08-09T23:49:35.750Z,15.63
2022-08-09T23:52:02.264Z,15.30
2022-08-09T23:54:28.753Z,15.88
2022-08-09T23:56:58.405Z,14.90
2022-08-09T23:59:25.884Z,14.95
